Time;durP1;ratioP1;P1;durP2;ratioP2;P2;SDS_P1;SDS_P2;PMS_P1;PMS_P2;Temp;Humidity;BMP_temperature;BMP_pressure;BME280_temperature;BME280_humidity;BME280_pressure;Samples;Min_cycle;Max_cycle;Signal;HPM_P1;HPM_P2
2024/04/14 00:01:20;;;;;;;10.93;2.20;;;;;;;11.71;93.49;102072.56;5353902;26;20243;-58
2024/04/14 00:03:53;;;;;;;20.15;2.20;;;;;;;11.80;91.94;102054.44;5353366;26;20606;-56
2024/04/14 00:06:19;;;;;;;13.75;2.78;;;;;;;11.57;93.17;102059.53;5354043;26;20246;-56
2024/04/14 00:08:44;;;;;;;10.25;2.28;;;;;;;11.51;94.71;102072.25;5352742;26;20618;-56
2024/04/14 00:11:10;;;;;;;15.50;2.40;;;;;;;11.39;95.72;102060.94;5353902;26;20247;-57
2024/04/14 00:13:35;;;;;;;11.13;3.53;;;;;;;11.25;96.98;102071.13;5355066;26;20569;-56
2024/04/14 00:16:01;;;;;;;13.73;2.03;;;;;;;11.33;97.94;102073.59;5355531;26;20634;-56
2024/04/14 00:18:27;;;;;;;10.35;2.53;;;;;;;11.34;97.78;102086.09;5353986;26;20251;-56
2024/04/14 00:20:52;;;;;;;15.57;2.78;;;;;;;11.25;98.70;102084.53;5354554;26;20235;-58
2024/04/14 00:23:18;;;;;;;11.52;2.72;;;;;;;11.37;98.17;102077.97;5354302;26;20282;-58
2024/04/14 00:25:43;;;;;;;18.98;3.35;;;;;;;11.33;98.63;102081.66;5351653;26;20270;-58
2024/04/14 00:28:09;;;;;;;15.73;2.22;;;;;;;11.16;99.50;102088.31;5352783;26;20285;-58
2024/04/14 00:30:35;;;;;;;15.38;2.25;;;;;;;11.26;99.83;102086.31;5352917;26;20294;-58
2024/04/14 00:33:00;;;;;;;11.30;2.10;;;;;;;11.29;99.51;102091.59;5330698;26;20239;-58
2024/04/14 00:35:25;;;;;;;15.00;3.40;;;;;;;11.10;100.00;102092.97;5346158;26;20240;-58
2024/04/14 00:37:51;;;;;;;11.52;2.38;;;;;;;11.13;100.00;102090.22;5328158;26;20281;-57
2024/04/14 00:40:16;;;;;;;15.75;2.97;;;;;;;11.23;100.00;102097.13;5351580;26;20235;-58
2024/04/14 00:42:42;;;;;;;15.90;2.35;;;;;;;11.11;100.00;102092.06;5345199;26;20271;-56
2024/04/14 00:45:07;;;;;;;16.33;2.85;;;;;;;11.15;100.00;102096.41;5336970;26;20238;-57
2024/04/14 00:47:33;;;;;;;11.20;2.97;;;;;;;10.91;100.00;102103.28;5345870;26;20236;-56
2024/04/14 00:49:58;;;;;;;18.20;2.85;;;;;;;10.85;100.00;102089.09;5335972;26;20741;-58
2024/04/14 00:52:23;;;;;;;12.68;2.72;;;;;;;11.16;100.00;102100.88;5330338;26;20569;-58
2024/04/14 00:54:49;;;;;;;9.30;3.00;;;;;;;11.03;100.00;102101.16;5344442;26;20248;-57
2024/04/14 00:57:14;;;;;;;10.10;2.10;;;;;;;11.14;100.00;102110.75;5346165;26;20243;-57
2024/04/14 00:59:40;;;;;;;13.20;2.25;;;;;;;11.04;100.00;102102.94;5351358;26;20282;-57
2024/04/14 01:02:06;;;;;;;20.33;2.45;;;;;;;10.85;100.00;102109.66;5329270;26;20239;-59
2024/04/14 01:04:32;;;;;;;13.23;2.85;;;;;;;10.76;100.00;102116.13;5351467;26;20317;-60
2024/04/14 01:06:58;;;;;;;14.52;3.55;;;;;;;11.00;100.00;102122.69;5345157;26;20304;-57
2024/04/14 01:09:23;;;;;;;10.57;2.75;;;;;;;11.13;100.00;102119.72;5335730;26;20235;-56
2024/04/14 01:11:49;;;;;;;15.15;2.88;;;;;;;10.90;100.00;102121.16;5350636;26;20277;-57
2024/04/14 01:14:16;;;;;;;13.25;3.42;;;;;;;10.80;100.00;102111.59;5351024;26;20231;-57
2024/04/14 01:16:42;;;;;;;13.38;2.72;;;;;;;10.57;100.00;102121.03;5327524;26;20238;-58
2024/04/14 01:19:07;;;;;;;19.38;3.08;;;;;;;10.79;100.00;102131.25;5350092;26;20239;-57
2024/04/14 01:21:33;;;;;;;12.75;2.63;;;;;;;10.93;100.00;102129.13;5349486;26;20329;-57
2024/04/14 01:23:58;;;;;;;14.27;2.88;;;;;;;11.08;100.00;102133.22;5348126;26;20285;-57
2024/04/14 01:26:24;;;;;;;18.90;2.75;;;;;;;10.97;100.00;102136.19;5318980;26;20243;-57
2024/04/14 01:28:50;;;;;;;15.65;2.53;;;;;;;10.99;100.00;102133.47;5349580;26;20240;-57
2024/04/14 01:31:15;;;;;;;18.92;2.80;;;;;;;10.93;100.00;102133.59;5348534;26;20340;-57
2024/04/14 01:33:40;;;;;;;19.60;2.97;;;;;;;10.99;100.00;102133.47;5331850;26;20294;-58
2024/04/14 01:36:06;;;;;;;15.95;2.95;;;;;;;11.11;100.00;102127.78;5342752;26;20266;-58
2024/04/14 01:38:32;;;;;;;15.65;2.55;;;;;;;11.11;100.00;102134.97;5346558;26;20235;-58
2024/04/14 01:40:59;;;;;;;19.90;3.08;;;;;;;11.01;100.00;102129.84;5347420;26;20278;-58
2024/04/14 01:43:25;;;;;;;11.70;4.03;;;;;;;11.02;100.00;102126.22;5348163;26;20239;-58
2024/04/14 01:45:51;;;;;;;17.73;4.50;;;;;;;11.04;100.00;102129.75;5347867;26;20590;-58
2024/04/14 01:48:16;;;;;;;14.93;2.63;;;;;;;10.90;100.00;102134.53;5349998;26;20344;-57
2024/04/14 01:50:41;;;;;;;14.50;2.63;;;;;;;10.91;100.00;102133.63;5350327;26;20590;-58
2024/04/14 01:53:07;;;;;;;17.95;2.97;;;;;;;11.05;100.00;102125.25;5350662;26;20243;-58
2024/04/14 01:55:33;;;;;;;13.32;2.35;;;;;;;11.15;99.95;102139.31;5349079;26;20251;-57
2024/04/14 01:57:59;;;;;;;12.15;2.45;;;;;;;11.15;97.92;102136.63;5349652;26;20239;-57
2024/04/14 02:00:25;;;;;;;14.90;2.20;;;;;;;11.15;97.29;102121.44;5327850;26;20247;-57
2024/04/14 02:02:54;;;;;;;13.48;2.67;;;;;;;11.06;97.45;102133.28;5349351;26;20356;-57
2024/04/14 02:05:20;;;;;;;16.13;4.40;;;;;;;11.17;96.94;102140.19;5352606;26;20281;-56
2024/04/14 02:07:45;;;;;;;19.63;3.15;;;;;;;11.28;95.89;102146.16;5353677;26;20239;-56
2024/04/14 02:10:10;;;;;;;18.50;3.42;;;;;;;11.13;94.29;102138.50;5350370;26;20227;-55
2024/04/14 02:12:36;;;;;;;15.50;2.83;;;;;;;10.75;94.56;102140.28;5351590;26;20234;-56
2024/04/14 02:15:02;;;;;;;13.25;2.60;;;;;;;11.05;93.31;102147.59;5351252;26;20227;-56
2024/04/14 02:17:28;;;;;;;12.73;3.00;;;;;;;10.88;92.87;102160.53;5350413;26;20239;-57
2024/04/14 02:19:53;;;;;;;15.02;2.65;;;;;;;10.95;92.85;102150.53;5349313;26;20243;-59
2024/04/14 02:22:19;;;;;;;14.13;2.35;;;;;;;11.06;93.34;102165.44;5347720;26;20265;-57
2024/04/14 02:24:47;;;;;;;12.82;3.03;;;;;;;11.03;93.18;102170.88;5376397;26;20328;-56
2024/04/14 02:27:12;;;;;;;14.05;2.60;;;;;;;11.09;93.63;102163.59;5348847;26;20235;-56
2024/04/14 02:29:38;;;;;;;10.05;2.88;;;;;;;11.07;92.99;102160.97;5349063;26;20239;-56
2024/04/14 02:32:03;;;;;;;12.10;2.45;;;;;;;10.87;93.66;102167.69;5348550;26;20353;-56
2024/04/14 02:34:29;;;;;;;12.50;2.13;;;;;;;11.10;93.50;102165.38;5348665;26;20243;-57
2024/04/14 02:36:54;;;;;;;10.57;2.10;;;;;;;11.21;90.64;102157.97;5348629;26;20234;-56
2024/04/14 02:39:21;;;;;;;9.18;2.40;;;;;;;11.11;89.94;102149.25;5326016;26;20327;-58
2024/04/14 02:41:46;;;;;;;13.43;2.33;;;;;;;11.06;88.90;102152.03;5348318;26;20266;-57
2024/04/14 02:44:12;;;;;;;6.55;2.33;;;;;;;11.42;87.68;102159.22;5348121;26;20242;-58
2024/04/14 02:46:38;;;;;;;11.25;2.10;;;;;;;10.96;89.10;102150.50;5348091;26;20235;-57
2024/04/14 02:49:03;;;;;;;10.35;2.85;;;;;;;11.06;89.24;102162.78;5350708;26;20595;-59
2024/04/14 02:51:28;;;;;;;10.45;2.47;;;;;;;10.74;90.03;102168.88;5349024;26;20231;-57
2024/04/14 02:53:54;;;;;;;11.43;2.55;;;;;;;10.95;90.26;102172.88;5347739;26;20341;-57
2024/04/14 02:56:19;;;;;;;13.23;2.42;;;;;;;10.55;90.93;102149.66;5328469;26;20315;-57
2024/04/14 02:58:45;;;;;;;10.13;2.40;;;;;;;10.77;90.45;102167.94;5337752;26;20236;-56
2024/04/14 03:01:13;;;;;;;17.67;3.25;;;;;;;10.87;90.07;102169.47;5335495;26;20259;-57
2024/04/14 03:03:39;;;;;;;16.02;3.03;;;;;;;10.58;92.92;102181.75;5350765;26;20444;-57
2024/04/14 03:06:05;;;;;;;16.42;2.78;;;;;;;10.60;93.25;102179.91;5352821;26;20687;-57
2024/04/14 03:08:31;;;;;;;19.23;2.70;;;;;;;10.58;93.95;102179.06;5355310;26;20231;-58
2024/04/14 03:10:57;;;;;;;9.43;2.25;;;;;;;10.88;93.12;102187.34;5355166;26;20235;-57
2024/04/14 03:13:23;;;;;;;13.73;2.50;;;;;;;10.73;92.95;102183.19;5382641;26;20336;-57
2024/04/14 03:15:48;;;;;;;13.07;2.28;;;;;;;10.38;93.74;102202.69;5355299;26;20235;-56
2024/04/14 03:18:14;;;;;;;15.98;3.30;;;;;;;10.65;92.08;102194.06;5355280;26;20293;-57
2024/04/14 03:20:39;;;;;;;14.40;2.13;;;;;;;10.58;90.22;102200.50;5354428;26;20802;-57
2024/04/14 03:23:05;;;;;;;11.27;2.10;;;;;;;10.53;88.49;102192.56;5354119;26;20235;-57
2024/04/14 03:25:30;;;;;;;9.05;2.50;;;;;;;10.54;87.74;102198.78;5355543;26;20251;-57
2024/04/14 03:27:56;;;;;;;10.80;2.30;;;;;;;10.29;88.27;102188.56;5355319;26;20326;-56
2024/04/14 03:30:21;;;;;;;22.75;3.08;;;;;;;10.28;89.39;102196.63;5352740;26;20250;-57
2024/04/14 03:32:46;;;;;;;9.65;2.65;;;;;;;10.46;89.12;102196.28;5349103;26;20235;-57
2024/04/14 03:35:12;;;;;;;19.70;2.28;;;;;;;10.43;90.12;102184.72;5336348;26;20255;-57
2024/04/14 03:37:39;;;;;;;15.25;3.25;;;;;;;10.25;90.67;102170.78;5354619;26;20293;-57
2024/04/14 03:40:05;;;;;;;14.13;2.75;;;;;;;10.31;90.80;102193.88;5352480;26;20260;-57
2024/04/14 03:42:32;;;;;;;12.40;3.00;;;;;;;10.40;90.04;102187.47;5354465;26;20607;-57
2024/04/14 03:44:57;;;;;;;12.77;2.25;;;;;;;10.55;88.69;102195.22;5354655;26;20234;-56
2024/04/14 03:47:23;;;;;;;10.82;2.33;;;;;;;10.44;88.03;102192.72;5354764;26;20282;-57
2024/04/14 03:49:48;;;;;;;13.68;2.60;;;;;;;10.68;86.98;102190.47;5354141;26;20238;-57
2024/04/14 03:52:13;;;;;;;18.50;2.63;;;;;;;10.13;89.60;102197.78;5352988;26;20325;-57
2024/04/14 03:54:39;;;;;;;12.35;2.25;;;;;;;10.08;89.71;102202.38;5352336;26;20273;-57
2024/04/14 03:57:04;;;;;;;11.82;2.88;;;;;;;10.02;90.17;102202.47;5352645;26;20251;-57
2024/04/14 03:59:30;;;;;;;12.63;2.67;;;;;;;10.23;90.10;102215.47;5315788;27;20248;-57
2024/04/14 04:01:55;;;;;;;21.95;4.05;;;;;;;10.17;89.94;102213.78;5344109;26;20340;-57
2024/04/14 04:04:20;;;;;;;14.75;2.70;;;;;;;10.33;88.98;102203.66;5353111;26;20239;-57
2024/04/14 04:06:46;;;;;;;12.02;2.97;;;;;;;10.04;90.22;102219.38;5329595;26;20240;-57
2024/04/14 04:09:11;;;;;;;17.42;2.28;;;;;;;10.12;91.16;102229.06;5339112;26;20267;-59
2024/04/14 04:11:36;;;;;;;13.05;3.08;;;;;;;10.28;90.70;102223.41;5344952;26;20347;-56
2024/04/14 04:14:02;;;;;;;14.85;2.90;;;;;;;10.73;88.01;102225.19;5341621;26;20240;-59
2024/04/14 04:16:27;;;;;;;14.07;3.08;;;;;;;10.46;89.01;102211.44;5345696;26;20254;-58
2024/04/14 04:18:52;;;;;;;12.95;2.60;;;;;;;10.27;90.78;102224.31;5356578;26;20615;-58
2024/04/14 04:21:18;;;;;;;13.52;2.42;;;;;;;9.98;91.93;102223.06;5331766;26;20286;-57
2024/04/14 04:23:43;;;;;;;14.98;2.83;;;;;;;10.25;92.19;102220.78;5353103;26;20243;-58
2024/04/14 04:26:09;;;;;;;16.05;2.83;;;;;;;10.24;91.66;102224.34;5352072;26;20286;-57
2024/04/14 04:28:35;;;;;;;16.23;2.88;;;;;;;9.99;92.25;102228.38;5349656;26;20235;-57
2024/04/14 04:31:11;;;;;;;14.43;3.05;;;;;;;9.77;93.21;102229.66;5349823;26;20879;-57
2024/04/14 04:33:39;;;;;;;13.50;3.13;;;;;;;9.68;92.88;102217.34;5350258;26;20352;-57
2024/04/14 04:36:04;;;;;;;13.55;2.42;;;;;;;9.86;92.46;102215.25;5349980;26;20318;-57
2024/04/14 04:38:30;;;;;;;16.52;3.08;;;;;;;10.03;89.90;102221.19;5348838;26;20235;-58
2024/04/14 04:40:55;;;;;;;12.00;2.05;;;;;;;10.22;89.38;102223.53;5348899;26;20289;-58
2024/04/14 04:43:22;;;;;;;9.82;2.17;;;;;;;10.45;88.04;102215.06;5342738;26;20248;-58
2024/04/14 04:45:48;;;;;;;9.23;1.60;;;;;;;10.66;86.91;102225.31;5341893;26;20265;-57
2024/04/14 04:48:13;;;;;;;14.90;2.78;;;;;;;10.37;87.26;102225.94;5350321;26;20235;-57
2024/04/14 04:50:38;;;;;;;10.15;2.15;;;;;;;10.55;86.58;102224.69;5327259;26;20282;-56
2024/04/14 04:53:04;;;;;;;11.95;2.47;;;;;;;10.73;85.82;102230.56;5349587;26;20336;-57
2024/04/14 04:55:29;;;;;;;9.43;2.10;;;;;;;10.46;87.60;102243.59;5326205;26;20251;-56
2024/04/14 04:57:54;;;;;;;7.47;2.25;;;;;;;10.23;89.22;102228.84;5349879;26;20709;-56
2024/04/14 05:00:20;;;;;;;10.82;2.00;;;;;;;10.42;88.42;102232.06;5348109;26;20273;-57
2024/04/14 05:02:45;;;;;;;12.07;2.38;;;;;;;10.85;86.28;102241.00;5349855;26;20716;-56
2024/04/14 05:05:11;;;;;;;8.95;2.15;;;;;;;10.88;85.44;102243.63;5347945;26;20294;-56
2024/04/14 05:07:36;;;;;;;11.45;1.90;;;;;;;10.77;86.31;102253.72;5349688;26;20611;-56
2024/04/14 05:10:01;;;;;;;9.63;1.73;;;;;;;10.96;84.62;102263.09;5349451;26;20231;-57
2024/04/14 05:12:27;;;;;;;13.27;2.22;;;;;;;10.84;84.72;102255.31;5350793;26;20250;-57
2024/04/14 05:14:52;;;;;;;6.82;2.20;;;;;;;10.68;83.57;102250.28;5350586;26;20646;-56
2024/04/14 05:17:17;;;;;;;16.65;3.08;;;;;;;10.58;84.45;102262.13;5351672;26;20341;-56
2024/04/14 05:19:43;;;;;;;12.15;2.40;;;;;;;10.75;84.11;102258.19;5349093;26;20243;-57
2024/04/14 05:22:08;;;;;;;12.00;2.22;;;;;;;10.66;84.26;102256.63;5351979;26;20293;-56
2024/04/14 05:24:34;;;;;;;9.55;2.05;;;;;;;10.46;84.57;102254.31;5347367;26;20271;-56
2024/04/14 05:26:59;;;;;;;12.43;2.15;;;;;;;10.50;85.72;102258.69;5352537;26;20239;-56
2024/04/14 05:29:25;;;;;;;11.20;2.40;;;;;;;10.22;85.41;102234.22;5351012;26;20243;-56
2024/04/14 05:31:51;;;;;;;8.38;2.05;;;;;;;10.42;85.35;102263.34;5350364;26;20239;-56
2024/04/14 05:34:17;;;;;;;17.30;2.60;;;;;;;10.49;84.61;102255.16;5350713;26;20246;-56
2024/04/14 05:36:44;;;;;;;12.10;2.47;;;;;;;10.74;83.22;102243.94;5349877;26;20243;-56
2024/04/14 05:39:09;;;;;;;14.55;1.98;;;;;;;10.70;84.25;102260.97;5348048;26;20803;-56
2024/04/14 05:41:35;;;;;;;8.45;1.80;;;;;;;10.89;83.61;102269.53;5330600;26;20243;-56
2024/04/14 05:44:00;;;;;;;12.07;2.08;;;;;;;11.24;81.62;102262.50;5350202;26;20344;-57
2024/04/14 05:46:25;;;;;;;10.95;2.90;;;;;;;11.00;81.99;102272.84;5352031;26;20247;-55
2024/04/14 05:48:51;;;;;;;8.68;2.47;;;;;;;11.28;81.34;102266.00;5352552;26;20285;-56
2024/04/14 05:51:16;;;;;;;5.85;1.63;;;;;;;11.28;81.33;102266.88;5352723;26;20325;-56
2024/04/14 05:53:41;;;;;;;5.35;1.60;;;;;;;11.34;81.81;102265.84;5351733;26;20239;-57
2024/04/14 05:56:07;;;;;;;8.00;1.75;;;;;;;11.12;83.01;102263.66;5352444;26;20289;-56
2024/04/14 05:58:32;;;;;;;12.20;2.15;;;;;;;11.16;82.81;102251.06;5348658;26;20302;-56
2024/04/14 06:01:06;;;;;;;9.07;1.90;;;;;;;11.60;82.32;102265.22;5351297;26;20383;-57
2024/04/14 06:03:31;;;;;;;16.40;1.98;;;;;;;11.19;84.02;102267.97;5348614;26;20330;-57
2024/04/14 06:05:57;;;;;;;13.13;2.35;;;;;;;10.94;85.85;102256.03;5351438;26;20231;-57
2024/04/14 06:08:22;;;;;;;11.32;1.95;;;;;;;10.98;87.05;102273.78;5351102;26;20900;-56
2024/04/14 06:10:48;;;;;;;9.50;1.70;;;;;;;10.98;84.72;102274.69;5351841;26;20325;-56
2024/04/14 06:13:14;;;;;;;9.15;2.00;;;;;;;10.83;83.98;102286.63;5351820;26;20279;-56
2024/04/14 06:15:40;;;;;;;10.43;1.50;;;;;;;10.84;83.35;102283.03;5350431;26;20615;-57
2024/04/14 06:18:06;;;;;;;9.60;2.50;;;;;;;10.77;83.78;102275.16;5351188;26;20645;-56
2024/04/14 06:20:31;;;;;;;12.20;2.15;;;;;;;11.18;81.95;102290.34;5351693;26;20239;-57
2024/04/14 06:22:56;;;;;;;6.72;1.85;;;;;;;11.22;80.35;102289.38;5350820;26;20247;-56
2024/04/14 06:25:22;;;;;;;9.20;1.55;;;;;;;11.21;81.20;102292.09;5350876;26;20278;-57
2024/04/14 06:27:47;;;;;;;10.48;2.22;;;;;;;11.04;83.44;102296.00;5327855;26;20248;-57
2024/04/14 06:30:12;;;;;;;9.30;1.80;;;;;;;10.90;84.43;102284.69;5350000;26;20235;-57
2024/04/14 06:32:38;;;;;;;8.73;2.83;;;;;;;11.07;85.26;102304.00;5350884;26;20620;-57
2024/04/14 06:35:05;;;;;;;12.48;2.50;;;;;;;11.11;84.22;102301.25;5351324;26;20352;-57
2024/04/14 06:37:31;;;;;;;9.27;2.67;;;;;;;11.02;82.68;102299.63;5351225;26;20243;-57
2024/04/14 06:39:56;;;;;;;6.57;2.05;;;;;;;11.15;81.75;102305.59;5351253;26;20336;-57
2024/04/14 06:42:21;;;;;;;10.60;2.05;;;;;;;11.34;79.89;102264.03;5348102;26;20239;-57
2024/04/14 06:44:47;;;;;;;8.93;2.20;;;;;;;11.40;80.20;102301.47;5351374;26;20285;-57
2024/04/14 06:47:12;;;;;;;11.13;1.85;;;;;;;11.54;79.42;102298.44;5350590;26;20251;-56
2024/04/14 06:49:37;;;;;;;11.60;2.05;;;;;;;11.47;80.40;102304.91;5351839;26;20755;-57
2024/04/14 06:52:03;;;;;;;10.93;2.25;;;;;;;11.31;79.66;102308.84;5349539;26;20243;-57
2024/04/14 06:54:29;;;;;;;11.82;1.90;;;;;;;10.93;81.21;102303.38;5351785;26;20238;-57
2024/04/14 06:56:54;;;;;;;13.32;2.20;;;;;;;11.40;79.05;102308.63;5349120;26;20289;-57
2024/04/14 06:59:19;;;;;;;10.95;1.67;;;;;;;11.28;79.26;102300.88;5343997;26;20341;-57
2024/04/14 07:01:45;;;;;;;13.60;2.40;;;;;;;11.45;79.00;102301.34;5342650;26;20254;-57
2024/04/14 07:04:10;;;;;;;14.02;2.38;;;;;;;11.61;76.22;102315.31;5350748;26;20614;-57
2024/04/14 07:06:35;;;;;;;9.35;1.58;;;;;;;11.87;74.22;102311.13;5350733;26;20243;-57
2024/04/14 07:09:01;;;;;;;9.77;1.48;;;;;;;12.03;72.87;102325.94;5343864;26;20270;-57
2024/04/14 07:11:26;;;;;;;10.43;1.95;;;;;;;12.20;70.90;102330.88;5338937;26;20235;-57
2024/04/14 07:13:52;;;;;;;6.55;1.60;;;;;;;12.63;70.38;102324.38;5343143;26;20262;-57
2024/04/14 07:16:17;;;;;;;12.52;2.65;;;;;;;12.81;68.68;102332.84;5338495;26;20235;-56
2024/04/14 07:18:46;;;;;;;8.50;1.20;;;;;;;12.81;66.84;102328.31;5349372;26;20278;-57
2024/04/14 07:21:11;;;;;;;4.10;1.52;;;;;;;12.48;66.23;102332.84;5350416;26;20281;-58
2024/04/14 07:23:37;;;;;;;4.50;1.63;;;;;;;13.09;65.49;102329.34;5346400;26;20302;-57
2024/04/14 07:26:02;;;;;;;8.45;1.33;;;;;;;13.65;62.92;102321.34;5341731;26;20297;-58
2024/04/14 07:28:28;;;;;;;7.15;1.63;;;;;;;13.64;61.99;102316.03;5328127;26;20290;-57
2024/04/14 07:30:53;;;;;;;5.80;1.67;;;;;;;13.74;61.91;102322.88;5336143;26;20592;-56
2024/04/14 07:33:18;;;;;;;11.73;1.98;;;;;;;13.84;61.22;102318.97;5319317;26;20235;-56
2024/04/14 07:35:44;;;;;;;11.45;1.98;;;;;;;13.73;59.40;102327.38;5335393;26;20251;-56
2024/04/14 07:38:09;;;;;;;8.25;2.10;;;;;;;14.47;59.42;102334.75;5337184;26;20251;-56
2024/04/14 07:40:35;;;;;;;5.38;1.63;;;;;;;15.01;56.01;102343.66;5349671;26;20235;-57
2024/04/14 07:43:00;;;;;;;6.35;1.50;;;;;;;15.41;55.98;102335.84;5343756;26;20277;-57
2024/04/14 07:45:26;;;;;;;7.35;1.40;;;;;;;15.72;54.13;102342.72;5334102;26;20232;-56
2024/04/14 07:47:51;;;;;;;6.55;1.67;;;;;;;15.38;53.48;102335.97;5348246;26;20251;-57
2024/04/14 07:50:16;;;;;;;4.40;1.20;;;;;;;15.62;51.21;102340.38;5349895;26;20344;-57
2024/04/14 07:52:42;;;;;;;5.45;1.42;;;;;;;15.63;50.79;102339.44;5338939;26;20319;-56
2024/04/14 07:55:10;;;;;;;7.18;1.30;;;;;;;15.60;52.63;102334.16;5339822;26;20262;-59
2024/04/14 07:57:35;;;;;;;8.25;1.52;;;;;;;15.95;52.41;102322.88;5350374;26;20239;-57
2024/04/14 08:00:00;;;;;;;4.88;1.35;;;;;;;16.57;51.26;102337.34;5348797;26;20277;-57
2024/04/14 08:02:26;;;;;;;5.30;1.50;;;;;;;16.50;51.88;102330.44;5349736;26;20235;-55
2024/04/14 08:04:51;;;;;;;5.88;1.30;;;;;;;16.19;52.03;102337.19;5349462;26;20617;-57
2024/04/14 08:07:17;;;;;;;9.57;1.58;;;;;;;16.70;51.72;102351.19;5323383;26;20282;-57
2024/04/14 08:09:42;;;;;;;9.40;1.55;;;;;;;16.62;52.51;102346.13;5337930;26;20239;-56
2024/04/14 08:12:07;;;;;;;9.02;1.50;;;;;;;16.42;50.78;102349.72;5339511;26;20252;-57
2024/04/14 08:14:33;;;;;;;8.10;1.75;;;;;;;16.26;51.74;102344.06;5338565;26;20239;-57
2024/04/14 08:16:58;;;;;;;8.77;1.70;;;;;;;15.74;51.75;102346.22;5340313;26;20260;-57
2024/04/14 08:19:24;;;;;;;8.90;2.00;;;;;;;15.29;53.11;102346.16;5342449;26;20273;-56
2024/04/14 08:21:49;;;;;;;14.25;2.00;;;;;;;15.63;54.18;102344.81;5351619;26;20240;-57
2024/04/14 08:24:15;;;;;;;6.68;1.35;;;;;;;15.93;52.40;102331.06;5333338;26;20276;-56
2024/04/14 08:26:40;;;;;;;8.45;1.60;;;;;;;15.75;51.00;102346.16;5352413;26;20716;-56
2024/04/14 08:29:05;;;;;;;8.10;1.50;;;;;;;15.57;51.79;102349.59;5351019;26;20239;-57
2024/04/14 08:31:31;;;;;;;10.25;1.80;;;;;;;15.36;54.04;102338.72;5351126;26;20340;-57
2024/04/14 08:33:56;;;;;;;6.75;1.60;;;;;;;15.31;55.14;102347.00;5317577;26;20244;-57
2024/04/14 08:36:22;;;;;;;7.57;1.42;;;;;;;15.86;54.16;102356.56;5325535;26;20243;-57
2024/04/14 08:38:49;;;;;;;8.32;1.77;;;;;;;15.13;51.19;102340.50;5340262;26;20281;-57
2024/04/14 08:41:17;;;;;;;5.47;1.27;;;;;;;15.38;53.54;102335.97;5331132;26;20617;-57
2024/04/14 08:43:42;;;;;;;6.93;1.42;;;;;;;15.57;52.34;102347.78;5323044;26;20248;-57
2024/04/14 08:46:10;;;;;;;9.55;1.92;;;;;;;15.26;52.75;102357.09;5338434;26;20239;-57
2024/04/14 08:48:36;;;;;;;4.40;1.73;;;;;;;15.39;52.78;102352.09;5323227;26;20274;-57
2024/04/14 08:51:02;;;;;;;9.90;1.70;;;;;;;15.15;54.34;102367.44;5327694;26;20251;-57
2024/04/14 08:53:28;;;;;;;12.20;1.90;;;;;;;15.06;55.74;102373.16;5323698;26;20236;-57
2024/04/14 08:55:54;;;;;;;8.98;1.80;;;;;;;16.04;54.07;102355.81;5331879;26;20344;-57
2024/04/14 08:58:20;;;;;;;7.53;1.88;;;;;;;15.95;51.90;102353.47;5341992;26;20295;-56
2024/04/14 09:00:50;;;;;;;8.20;1.50;;;;;;;15.48;52.83;102346.34;5336660;26;20277;-57
2024/04/14 09:03:16;;;;;;;7.68;1.67;;;;;;;15.66;54.22;102365.44;5338660;26;20287;-57
2024/04/14 09:05:43;;;;;;;8.63;1.48;;;;;;;15.60;54.85;102363.88;5347329;26;20235;-58
2024/04/14 09:08:08;;;;;;;8.45;2.05;;;;;;;15.47;56.30;102365.31;5287405;26;20756;-57
2024/04/14 09:10:33;;;;;;;7.72;1.67;;;;;;;16.11;55.36;102371.75;5344759;26;20235;-57
2024/04/14 09:12:59;;;;;;;8.27;1.55;;;;;;;16.12;55.63;102368.13;5338193;26;20345;-57
2024/04/14 09:15:24;;;;;;;7.68;1.92;;;;;;;15.89;56.23;102375.34;5342462;26;20283;-57
2024/04/14 09:17:49;;;;;;;8.05;1.73;;;;;;;15.54;54.44;102374.91;5328230;26;20239;-57
2024/04/14 09:20:15;;;;;;;8.93;1.33;;;;;;;15.01;54.66;102385.94;5349191;26;20231;-57
2024/04/14 09:22:41;;;;;;;10.50;1.73;;;;;;;15.47;55.13;102387.78;5341893;26;20248;-57
2024/04/14 09:25:07;;;;;;;6.15;1.05;;;;;;;15.40;52.15;102372.75;5366551;26;20340;-56
2024/04/14 09:27:33;;;;;;;11.38;1.92;;;;;;;15.65;53.89;102379.88;5342026;26;20273;-56
2024/04/14 09:30:18;;;;;;;6.78;1.38;;;;;;;15.72;52.10;102384.13;5353448;26;20235;-57
2024/04/14 09:32:44;;;;;;;6.03;1.52;;;;;;;15.51;51.51;102396.63;5338045;26;20244;-57
2024/04/14 09:35:10;;;;;;;6.30;1.35;;;;;;;15.49;51.45;102393.13;5344969;26;20266;-57
2024/04/14 09:37:38;;;;;;;6.43;1.63;;;;;;;15.44;51.88;102387.91;5352314;26;20239;-58
2024/04/14 09:40:06;;;;;;;6.55;1.42;;;;;;;15.81;53.84;102386.47;5352631;26;20286;-57
2024/04/14 09:42:32;;;;;;;9.73;1.55;;;;;;;16.12;53.36;102382.50;5352628;26;20315;-57
2024/04/14 09:44:59;;;;;;;11.38;2.47;;;;;;;15.98;55.51;102374.97;5347822;26;20281;-56
2024/04/14 09:47:25;;;;;;;10.75;1.92;;;;;;;16.28;55.19;102385.47;5348584;26;20251;-57
2024/04/14 09:49:54;;;;;;;7.80;2.42;;;;;;;15.45;56.80;102380.66;5350126;26;20611;-56
2024/04/14 09:52:21;;;;;;;7.40;1.38;;;;;;;16.12;55.45;102387.91;5344874;26;20708;-55
2024/04/14 09:54:47;;;;;;;8.65;1.60;;;;;;;16.17;57.52;102375.09;5349255;26;20278;-56
2024/04/14 09:57:13;;;;;;;9.68;1.40;;;;;;;16.02;54.63;102378.47;5346395;26;20370;-58
2024/04/14 09:59:38;;;;;;;8.05;2.58;;;;;;;16.25;55.83;102393.72;5336181;26;20231;-58
2024/04/14 10:02:05;;;;;;;7.60;1.55;;;;;;;16.81;52.55;102399.44;5345856;26;20235;-58
2024/04/14 10:04:31;;;;;;;10.05;2.03;;;;;;;16.69;52.71;102404.47;5321402;26;20627;-58
2024/04/14 10:06:56;;;;;;;7.72;1.67;;;;;;;16.17;53.19;102401.25;5340350;26;20247;-57
2024/04/14 10:09:24;;;;;;;10.88;1.58;;;;;;;15.80;54.22;102410.84;5344883;26;20247;-57
2024/04/14 10:11:49;;;;;;;8.45;1.40;;;;;;;15.94;55.72;102400.41;5344812;26;20278;-59
2024/04/14 10:14:15;;;;;;;11.15;2.05;;;;;;;15.84;54.37;102416.06;5346067;26;20239;-59
2024/04/14 10:16:51;;;;;;;11.75;3.63;;;;;;;15.80;55.37;102400.94;5346517;26;20247;-59
2024/04/14 10:19:18;;;;;;;6.22;1.60;;;;;;;16.17;54.68;102391.34;5372193;26;20243;-57
2024/04/14 10:21:43;;;;;;;12.93;1.98;;;;;;;16.30;52.92;102402.50;5349174;26;20312;-58
2024/04/14 10:24:10;;;;;;;9.30;1.63;;;;;;;16.79;52.82;102407.63;5349357;26;20235;-58
2024/04/14 10:26:35;;;;;;;9.38;1.90;;;;;;;16.40;51.06;102395.75;5349116;26;20390;-59
2024/04/14 10:29:06;;;;;;;9.85;1.70;;;;;;;16.04;51.72;102388.25;5334764;26;20278;-58
2024/04/14 10:31:34;;;;;;;5.63;1.42;;;;;;;16.12;52.12;102396.03;5337016;26;20231;-58
2024/04/14 10:34:10;;;;;;;11.90;1.80;;;;;;;16.07;52.12;102403.47;5331757;26;20247;-58
2024/04/14 10:36:37;;;;;;;7.60;1.73;;;;;;;15.28;54.02;102395.72;5338546;26;20230;-57
2024/04/14 10:39:04;;;;;;;11.52;2.30;;;;;;;15.90;54.25;102392.47;5348289;26;20239;-58
2024/04/14 10:41:30;;;;;;;7.45;1.27;;;;;;;16.18;52.53;102390.38;5345051;26;20250;-57
2024/04/14 10:43:55;;;;;;;15.05;1.90;;;;;;;15.96;53.20;102384.97;5343654;26;20336;-57
2024/04/14 10:46:21;;;;;;;12.15;2.10;;;;;;;16.12;52.32;102376.25;5343681;26;20235;-57
2024/04/14 10:48:46;;;;;;;10.45;1.88;;;;;;;15.86;53.11;102383.59;5347277;26;20287;-58
2024/04/14 10:51:13;;;;;;;8.10;1.98;;;;;;;16.35;53.99;102373.44;5316198;26;20247;-58
2024/04/14 10:53:38;;;;;;;11.32;2.08;;;;;;;16.52;52.86;102371.81;5347062;26;20263;-58
2024/04/14 10:56:04;;;;;;;8.93;1.90;;;;;;;15.84;53.74;102353.06;5340111;26;20369;-57
2024/04/14 10:58:30;;;;;;;6.70;1.52;;;;;;;16.02;54.00;102379.31;5340567;26;20244;-57
2024/04/14 11:00:56;;;;;;;6.60;1.60;;;;;;;16.00;54.20;102359.59;5347183;26;20255;-57
2024/04/14 11:03:22;;;;;;;7.68;2.20;;;;;;;16.02;54.04;102365.81;5348352;26;20712;-56
2024/04/14 11:05:49;;;;;;;9.30;2.05;;;;;;;15.71;57.19;102363.44;5349072;26;20347;-57
2024/04/14 11:08:14;;;;;;;6.10;1.80;;;;;;;16.30;54.51;102383.56;5339076;26;20660;-57
2024/04/14 11:10:40;;;;;;;11.43;1.80;;;;;;;16.02;55.67;102367.66;5317408;26;20363;-59
2024/04/14 11:13:06;;;;;;;10.38;1.90;;;;;;;15.92;54.48;102380.63;5347383;26;20317;-59